Time;durP1;ratioP1;P1;durP2;ratioP2;P2;SDS_P1;SDS_P2;PMS_P1;PMS_P2;Temp;Humidity;BMP_temperature;BMP_pressure;BME280_temperature;BME280_humidity;BME280_pressure;Samples;Min_cycle;Max_cycle;Signal;HPM_P1;HPM_P2
2022/05/11 00:00:01;;;;;;;5.40;1.90;;;;;;;16.36;42.19;100030.41;5114604;28;20024;-47
2022/05/11 00:02:27;;;;;;;7.07;2.30;;;;;;;16.37;41.58;100020.47;5113752;28;20068;-47
2022/05/11 00:04:52;;;;;;;5.10;2.20;;;;;;;16.37;42.47;100026.69;5114590;28;20088;-47
2022/05/11 00:07:18;;;;;;;5.03;1.95;;;;;;;16.47;41.53;100034.16;5114315;28;20100;-50
2022/05/11 00:09:43;;;;;;;3.17;2.10;;;;;;;16.38;41.56;100017.56;5114666;28;20015;-49
2022/05/11 00:12:09;;;;;;;5.32;2.10;;;;;;;16.31;41.21;100022.22;5096621;28;20020;-48
2022/05/11 00:14:35;;;;;;;4.35;2.42;;;;;;;16.24;41.85;100016.19;5114240;28;20024;-46
2022/05/11 00:17:01;;;;;;;3.45;2.20;;;;;;;16.19;41.90;100013.38;5114236;28;20449;-48
2022/05/11 00:19:27;;;;;;;5.70;2.25;;;;;;;16.19;43.15;100016.06;5114510;28;20103;-46
2022/05/11 00:21:53;;;;;;;4.70;2.08;;;;;;;16.19;43.08;100016.06;5114459;28;20515;-47
2022/05/11 00:24:18;;;;;;;5.00;2.00;;;;;;;16.30;42.26;100015.25;5113959;28;20153;-49
2022/05/11 00:26:44;;;;;;;5.15;2.20;;;;;;;16.30;42.74;100011.75;5114409;28;20410;-49
2022/05/11 00:29:10;;;;;;;5.18;2.20;;;;;;;16.31;43.10;100018.75;5114219;28;20106;-49
2022/05/11 00:31:35;;;;;;;3.10;2.13;;;;;;;16.29;42.90;100010.91;5114224;28;20024;-46
2022/05/11 00:34:01;;;;;;;6.07;2.00;;;;;;;16.13;43.29;100012.44;5113960;28;20464;-46
2022/05/11 00:36:26;;;;;;;3.58;1.85;;;;;;;16.18;43.31;100019.78;5095839;28;20020;-46
2022/05/11 00:38:52;;;;;;;3.03;2.17;;;;;;;16.20;43.60;100015.84;5113827;28;20475;-49
2022/05/11 00:41:18;;;;;;;8.57;2.15;;;;;;;16.22;43.49;100012.91;5114446;28;20020;-46
2022/05/11 00:43:57;;;;;;;5.03;2.13;;;;;;;16.20;43.28;100012.31;5114016;28;20446;-47
2022/05/11 00:46:51;;;;;;;4.53;2.50;;;;;;;16.15;43.22;100010.34;5114426;28;20023;-45
2022/05/11 00:49:38;;;;;;;6.63;2.17;;;;;;;16.08;44.26;100012.31;5114089;28;20099;-46
2022/05/11 00:52:22;;;;;;;4.13;2.22;;;;;;;16.12;44.15;100023.41;5113822;28;20028;-46
2022/05/11 00:54:57;;;;;;;9.30;2.40;;;;;;;16.01;44.73;100023.19;5113700;28;20016;-47
2022/05/11 00:57:32;;;;;;;3.85;2.42;;;;;;;15.95;44.49;100009.84;5113514;28;20031;-48
2022/05/11 00:59:59;;;;;;;7.78;2.10;;;;;;;15.93;44.16;100020.81;5113149;28;20024;-46
2022/05/11 01:02:26;;;;;;;4.68;2.67;;;;;;;15.93;44.98;100020.81;5113084;28;20566;-45
2022/05/11 01:04:57;;;;;;;4.43;2.20;;;;;;;15.92;44.77;100019.22;5113576;28;20036;-46
2022/05/11 01:07:22;;;;;;;4.50;2.30;;;;;;;15.87;45.66;100019.06;5113311;28;20122;-46
2022/05/11 01:09:48;;;;;;;5.28;2.40;;;;;;;15.87;45.21;100011.03;5112887;28;20100;-45
2022/05/11 01:12:17;;;;;;;3.95;2.53;;;;;;;15.88;44.37;100012.66;5112547;28;20030;-45
2022/05/11 01:14:48;;;;;;;5.53;2.22;;;;;;;15.93;43.66;100004.72;5113495;28;20058;-45
2022/05/11 01:17:14;;;;;;;5.93;2.30;;;;;;;15.86;45.64;100008.56;5113472;28;20172;-45
2022/05/11 01:19:42;;;;;;;6.05;2.75;;;;;;;15.82;45.07;100010.88;5113353;28;20106;-45
2022/05/11 01:22:43;;;;;;;5.38;2.30;;;;;;;15.87;45.54;100011.03;5113335;28;20455;-46
2022/05/11 01:25:10;;;;;;;8.52;2.60;;;;;;;15.79;45.25;100006.00;5058792;28;20104;-48
2022/05/11 01:27:38;;;;;;;2.60;1.92;;;;;;;15.70;46.26;100010.84;5112932;28;20456;-47
2022/05/11 01:30:06;;;;;;;4.57;2.30;;;;;;;15.64;45.98;100014.47;5112780;28;20051;-48
2022/05/11 01:32:31;;;;;;;7.28;2.30;;;;;;;15.78;45.77;100013.25;5113180;28;20085;-47
2022/05/11 01:35:35;;;;;;;6.43;2.40;;;;;;;15.70;46.18;100018.09;5112704;28;20027;-46
2022/05/11 01:38:13;;;;;;;4.72;2.50;;;;;;;15.54;46.99;100015.03;5109785;28;20123;-46
2022/05/11 01:40:38;;;;;;;6.70;2.65;;;;;;;15.39;47.37;100014.63;5113204;28;20024;-46
2022/05/11 01:43:04;;;;;;;6.13;2.20;;;;;;;15.36;47.29;100018.56;5112551;28;20019;-46
2022/05/11 01:45:29;;;;;;;5.50;2.45;;;;;;;15.15;47.96;100014.53;5112586;28;20036;-45
2022/05/11 01:47:56;;;;;;;6.88;2.63;;;;;;;15.24;48.25;100015.84;5113037;28;20042;-46
2022/05/11 01:50:22;;;;;;;3.42;2.50;;;;;;;15.17;47.99;100017.81;5113111;28;20035;-47
2022/05/11 01:52:48;;;;;;;11.85;3.10;;;;;;;15.11;48.03;100015.22;5112424;28;20443;-47
2022/05/11 01:55:14;;;;;;;9.32;2.60;;;;;;;15.00;48.34;100014.94;5111852;28;20118;-47
2022/05/11 01:57:39;;;;;;;5.18;2.65;;;;;;;15.03;48.12;100016.34;5112151;28;20020;-46
2022/05/11 02:00:07;;;;;;;8.95;3.00;;;;;;;14.96;48.24;100010.25;5112463;28;20054;-47
2022/05/11 02:02:33;;;;;;;7.40;2.80;;;;;;;14.83;49.27;100009.38;5111933;28;20031;-48
2022/05/11 02:07:52;;;;;;;7.82;3.00;;;;;;;15.03;48.33;100014.47;5112088;28;20148;-46
2022/05/11 02:10:19;;;;;;;10.70;3.72;;;;;;;14.96;49.04;100023.66;5111594;28;20123;-47
2022/05/11 02:12:46;;;;;;;9.25;3.33;;;;;;;14.98;48.84;100032.28;5112318;28;20023;-47
2022/05/11 02:15:13;;;;;;;14.55;3.88;;;;;;;15.02;48.66;100030.78;5111985;28;20027;-47
2022/05/11 02:17:39;;;;;;;13.82;3.90;;;;;;;15.02;48.42;100025.41;5093536;28;20019;-47
2022/05/11 02:20:05;;;;;;;17.85;3.95;;;;;;;15.07;48.49;100022.09;5111973;28;20076;-47
2022/05/11 02:22:31;;;;;;;12.52;3.67;;;;;;;14.94;48.24;100023.88;5112057;28;20027;-46
2022/05/11 02:24:56;;;;;;;11.32;3.80;;;;;;;14.92;49.20;100028.63;5111987;28;20117;-49
2022/05/11 02:27:21;;;;;;;9.73;4.00;;;;;;;14.84;48.07;100026.28;5112060;28;20507;-48
2022/05/11 02:29:47;;;;;;;7.97;3.67;;;;;;;14.76;48.78;100023.91;5111951;28;20034;-48
2022/05/11 02:32:12;;;;;;;9.27;4.07;;;;;;;15.08;47.74;100029.06;5111813;28;20024;-48
2022/05/11 02:37:22;;;;;;;9.50;3.88;;;;;;;14.70;48.51;100014.06;5112137;28;20402;-48
2022/05/11 02:39:48;;;;;;;9.15;4.18;;;;;;;14.57;49.75;100020.41;5111582;28;20020;-46
2022/05/11 02:42:14;;;;;;;6.82;4.20;;;;;;;14.56;49.56;100013.38;5111540;28;20471;-47
2022/05/11 02:44:40;;;;;;;9.50;4.00;;;;;;;14.60;49.37;100017.25;5111858;28;20039;-49
2022/05/11 02:47:05;;;;;;;11.75;3.80;;;;;;;14.56;49.40;100013.38;5112137;28;20019;-38
2022/05/11 02:49:31;;;;;;;12.93;4.65;;;;;;;14.47;49.60;100011.00;5111731;28;20015;-38
2022/05/11 02:51:58;;;;;;;12.73;4.40;;;;;;;14.58;49.73;100014.84;5111665;28;20383;-38
2022/05/11 02:54:24;;;;;;;7.05;3.80;;;;;;;14.64;50.03;100016.63;5111449;28;20076;-38
2022/05/11 02:56:49;;;;;;;12.10;4.40;;;;;;;14.62;50.25;100017.84;5111007;28;20028;-38
2022/05/11 02:59:15;;;;;;;10.43;4.57;;;;;;;14.54;50.26;100018.94;5111266;28;20051;-38
2022/05/11 03:01:40;;;;;;;24.90;5.30;;;;;;;14.43;50.93;100028.56;5111305;28;20024;-38
2022/05/11 03:04:06;;;;;;;16.55;4.70;;;;;;;14.35;51.61;100028.81;5110891;28;20031;-37
2022/05/11 03:06:31;;;;;;;8.93;4.18;;;;;;;14.21;51.78;100030.00;5111208;28;20109;-37
2022/05/11 03:08:57;;;;;;;15.20;4.18;;;;;;;14.22;51.82;100028.94;5110794;28;20081;-37
2022/05/11 03:11:22;;;;;;;14.75;4.30;;;;;;;14.01;51.70;99998.06;5111100;28;20116;-37
2022/05/11 03:13:50;;;;;;;11.65;4.32;;;;;;;13.88;52.03;100015.06;5111089;28;20047;-37
2022/05/11 03:16:16;;;;;;;8.85;4.07;;;;;;;13.79;52.20;100024.41;5111182;28;20050;-37
2022/05/11 03:18:41;;;;;;;8.95;4.18;;;;;;;13.67;51.92;100029.63;5110895;28;20045;-37
2022/05/11 03:21:06;;;;;;;10.07;4.28;;;;;;;13.75;51.96;100025.88;5110533;28;20031;-37
2022/05/11 03:23:32;;;;;;;10.55;4.60;;;;;;;13.68;51.88;100021.38;5111021;28;20035;-37
2022/05/11 03:25:57;;;;;;;8.55;4.18;;;;;;;13.76;52.03;100030.97;5110930;28;20028;-37
2022/05/11 03:28:23;;;;;;;18.23;8.38;;;;;;;14.05;52.73;100021.50;5111071;28;20024;-37
2022/05/11 03:30:49;;;;;;;115.93;62.10;;;;;;;14.28;51.07;100030.78;5110949;28;20463;-37
2022/05/11 03:36:00;;;;;;;46.35;23.48;;;;;;;14.27;51.72;100034.47;5111047;28;20058;-46
2022/05/11 03:38:26;;;;;;;16.92;7.90;;;;;;;14.27;51.23;100035.28;5110678;28;20024;-48
2022/05/11 03:40:51;;;;;;;10.85;4.60;;;;;;;14.42;51.06;100037.59;5110688;28;20034;-47
2022/05/11 03:43:16;;;;;;;10.80;4.97;;;;;;;14.47;51.35;100035.09;5110605;28;20030;-47
2022/05/11 03:45:42;;;;;;;11.07;4.88;;;;;;;14.56;51.23;100032.94;5110284;28;20035;-46
2022/05/11 03:48:08;;;;;;;13.95;4.70;;;;;;;14.71;50.97;100035.28;5110326;28;20070;-47
2022/05/11 03:50:33;;;;;;;10.45;5.10;;;;;;;14.97;50.95;100038.69;5110617;28;20031;-47
2022/05/11 03:52:59;;;;;;;8.48;4.60;;;;;;;15.07;51.02;100041.66;5109289;28;20027;-50
2022/05/11 03:55:26;;;;;;;10.80;4.88;;;;;;;15.33;50.39;100042.38;5109610;28;20107;-48
2022/05/11 03:57:52;;;;;;;8.02;4.60;;;;;;;15.71;49.39;100025.91;5108845;28;20031;-48
2022/05/11 04:00:21;;;;;;;8.80;4.35;;;;;;;16.04;49.06;100038.00;5108741;28;20031;-50
2022/05/11 04:02:50;;;;;;;20.45;5.15;;;;;;;16.39;47.70;100048.75;5108549;28;20024;-50
2022/05/11 04:05:17;;;;;;;7.47;4.47;;;;;;;16.47;46.96;100017.19;5108817;28;20134;-49
2022/05/11 04:07:42;;;;;;;7.38;4.10;;;;;;;16.99;45.74;100047.63;5108751;28;20067;-50
2022/05/11 04:10:10;;;;;;;9.60;4.47;;;;;;;17.29;45.21;100051.16;5109006;28;20031;-48
2022/05/11 04:12:36;;;;;;;11.60;4.68;;;;;;;17.37;44.46;100050.78;5109110;28;20114;-48
2022/05/11 04:15:02;;;;;;;8.90;4.80;;;;;;;17.52;45.23;100056.44;5109536;28;20024;-47
2022/05/11 04:17:28;;;;;;;6.30;4.38;;;;;;;17.85;44.43;100052.16;5110427;28;20031;-47
2022/05/11 04:19:53;;;;;;;13.77;9.30;;;;;;;18.25;43.42;100056.56;5110225;28;20035;-47
2022/05/11 04:22:19;;;;;;;25.05;11.13;;;;;;;18.80;41.85;100057.63;5104990;28;20031;-47
2022/05/11 04:24:44;;;;;;;14.23;9.73;;;;;;;19.18;41.49;100049.72;5109129;28;20058;-46
2022/05/11 04:27:10;;;;;;;9.13;5.65;;;;;;;19.48;40.47;100060.03;5100531;28;20496;-48
2022/05/11 04:29:36;;;;;;;7.60;4.47;;;;;;;19.79;40.22;100069.25;5109806;28;20031;-50
2022/05/11 04:32:02;;;;;;;25.63;14.35;;;;;;;20.01;39.59;100061.06;5110152;28;20158;-46
2022/05/11 04:34:28;;;;;;;19.58;12.82;;;;;;;20.37;39.18;100074.84;5113587;28;20126;-48
2022/05/11 04:36:53;;;;;;;10.98;4.60;;;;;;;20.80;38.08;100074.84;5113707;28;20081;-47
2022/05/11 04:39:19;;;;;;;10.77;4.20;;;;;;;21.18;37.34;100072.81;5113411;28;20107;-46
2022/05/11 04:41:44;;;;;;;12.50;4.40;;;;;;;21.19;37.56;100069.03;5113554;28;20034;-48
2022/05/11 04:44:10;;;;;;;11.18;4.10;;;;;;;21.50;36.08;100074.56;5113214;28;20028;-48
2022/05/11 04:46:36;;;;;;;13.48;3.70;;;;;;;21.79;35.24;100075.69;5111846;28;20039;-48
2022/05/11 04:49:17;;;;;;;5.57;4.10;;;;;;;21.80;34.95;100074.59;5111608;28;20092;-49
2022/05/11 04:51:43;;;;;;;7.75;3.80;;;;;;;21.92;34.46;100076.25;5093807;28;20112;-47
2022/05/11 04:54:09;;;;;;;13.73;4.05;;;;;;;22.23;34.51;100079.72;5112178;28;20115;-50
2022/05/11 04:56:37;;;;;;;10.70;3.90;;;;;;;22.35;34.41;100082.19;5112246;28;20066;-50
2022/05/11 04:59:03;;;;;;;13.38;3.92;;;;;;;22.74;33.28;100079.66;5111875;28;20027;-49
2022/05/11 05:01:28;;;;;;;7.45;3.63;;;;;;;23.17;32.91;100073.81;5112784;28;20028;-51
2022/05/11 05:03:54;;;;;;;7.65;4.13;;;;;;;23.61;32.12;100073.03;5113069;28;20051;-47
2022/05/11 05:06:19;;;;;;;7.78;3.78;;;;;;;23.36;32.55;100085.69;5112356;28;20433;-47
2022/05/11 05:08:45;;;;;;;13.35;6.15;;;;;;;22.43;33.65;100092.50;5113090;28;20102;-49
2022/05/11 05:11:10;;;;;;;8.85;3.90;;;;;;;22.20;34.24;100083.81;5113065;28;20028;-48
2022/05/11 05:13:36;;;;;;;35.50;21.92;;;;;;;22.73;33.62;100088.91;5112724;28;20049;-50
2022/05/11 05:16:01;;;;;;;10.05;5.32;;;;;;;23.48;31.90;100082.63;5094674;28;20035;-50
2022/05/11 05:18:28;;;;;;;7.10;3.90;;;;;;;22.43;32.96;100092.50;5112720;28;20494;-48
2022/05/11 05:20:55;;;;;;;9.38;3.65;;;;;;;23.19;32.56;100093.38;5112682;28;20016;-49
2022/05/11 05:23:21;;;;;;;6.65;3.50;;;;;;;23.93;31.17;100085.31;5112534;28;20027;-51
2022/05/11 05:25:47;;;;;;;6.53;3.70;;;;;;;24.54;30.48;100089.41;5112523;28;20030;-48
2022/05/11 05:31:06;;;;;;;6.45;3.80;;;;;;;25.40;29.27;100086.75;5112790;28;20041;-48
2022/05/11 05:33:34;;;;;;;8.60;3.47;;;;;;;25.89;28.25;100093.66;5112567;28;20027;-51
2022/05/11 05:36:00;;;;;;;12.90;4.25;;;;;;;26.28;27.98;100088.94;5112231;28;20039;-51
2022/05/11 05:38:27;;;;;;;10.18;3.90;;;;;;;26.38;27.85;100093.41;5112428;28;20031;-50
2022/05/11 05:40:54;;;;;;;7.35;3.47;;;;;;;26.78;26.75;100088.31;5111689;28;20096;-51
2022/05/11 05:43:20;;;;;;;7.28;3.42;;;;;;;27.07;26.57;100107.91;5112067;28;20070;-48
2022/05/11 05:45:51;;;;;;;8.90;3.63;;;;;;;27.40;26.11;100102.31;5111723;28;20031;-49
2022/05/11 05:48:19;;;;;;;9.82;3.15;;;;;;;27.82;25.39;100096.72;5112292;28;20076;-49
2022/05/11 05:50:44;;;;;;;8.93;3.15;;;;;;;27.54;25.74;100101.47;5112298;28;20028;-48
2022/05/11 05:53:11;;;;;;;10.32;3.00;;;;;;;27.76;25.76;100104.22;5111674;28;20046;-48
2022/05/11 05:55:37;;;;;;;8.55;3.22;;;;;;;26.96;25.94;100108.41;5111807;28;20019;-49
2022/05/11 05:58:03;;;;;;;8.85;3.85;;;;;;;27.56;25.23;100105.50;5111830;28;20072;-50
2022/05/11 06:00:30;;;;;;;11.25;3.42;;;;;;;27.69;25.37;100101.91;5111964;28;20024;-51
2022/05/11 06:02:55;;;;;;;11.25;3.35;;;;;;;27.48;25.25;100107.03;5111688;28;20516;-50
2022/05/11 06:05:21;;;;;;;6.70;3.00;;;;;;;27.28;25.09;100107.50;5112102;28;20057;-51
2022/05/11 06:07:46;;;;;;;8.50;3.42;;;;;;;26.89;25.87;100117.03;5111703;28;20052;-49
2022/05/11 06:10:12;;;;;;;10.90;3.85;;;;;;;26.66;26.46;100114.19;5111990;28;20081;-53
2022/05/11 06:12:38;;;;;;;7.20;3.38;;;;;;;26.46;26.63;100107.13;5111606;28;20019;-52
2022/05/11 06:15:05;;;;;;;6.90;3.25;;;;;;;26.29;26.92;100104.19;5111895;28;20016;-50
2022/05/11 06:17:32;;;;;;;8.57;3.42;;;;;;;25.97;27.34;100113.16;5111824;28;20023;-49
2022/05/11 06:19:58;;;;;;;5.70;3.13;;;;;;;25.69;28.00;100111.13;5111548;28;20024;-48
2022/05/11 06:22:25;;;;;;;6.97;3.47;;;;;;;25.28;28.80;100103.50;5111701;28;20036;-49
2022/05/11 06:24:50;;;;;;;6.95;3.38;;;;;;;25.23;29.01;100119.94;5111617;28;20027;-51
2022/05/11 06:27:18;;;;;;;11.52;3.30;;;;;;;25.24;29.13;100118.81;5111775;28;20034;-49
2022/05/11 06:29:56;;;;;;;7.47;3.30;;;;;;;25.09;29.86;100117.09;5111498;28;20020;-49
2022/05/11 06:32:24;;;;;;;12.65;3.30;;;;;;;25.44;29.02;100114.22;5111742;28;20124;-50
2022/05/11 06:34:51;;;;;;;6.07;3.03;;;;;;;25.47;28.96;100114.41;5111501;28;20032;-47
2022/05/11 06:37:17;;;;;;;8.40;3.00;;;;;;;25.42;28.55;100114.50;5110963;28;20023;-51
2022/05/11 06:39:43;;;;;;;7.53;2.90;;;;;;;25.12;29.07;100115.69;5110778;28;20024;-49
2022/05/11 06:42:10;;;;;;;8.93;3.40;;;;;;;25.15;28.90;100113.19;5111231;28;20042;-51
2022/05/11 06:44:36;;;;;;;5.07;2.75;;;;;;;25.43;28.67;100110.66;5111205;28;20108;-51
2022/05/11 06:47:02;;;;;;;4.10;2.50;;;;;;;25.53;28.65;100116.00;5111165;28;20053;-50
2022/05/11 06:49:27;;;;;;;10.05;2.78;;;;;;;26.09;28.22;100110.81;5111153;28;20106;-51
2022/05/11 06:51:53;;;;;;;5.25;2.72;;;;;;;25.79;28.54;100115.59;5111501;28;20031;-53
2022/05/11 06:59:47;;;;;;;5.15;2.70;;;;;;;26.79;27.30;100112.56;5111024;28;20111;-52
2022/05/11 07:02:13;;;;;;;7.78;2.70;;;;;;;26.84;27.05;100122.56;5110639;28;20101;-52
2022/05/11 07:04:38;;;;;;;3.83;2.22;;;;;;;26.80;26.54;100107.91;5110774;28;20474;-49
2022/05/11 07:07:06;;;;;;;5.38;2.47;;;;;;;26.77;26.63;100113.97;5111193;28;20056;-51
2022/05/11 07:09:33;;;;;;;6.72;2.60;;;;;;;27.02;26.64;100116.19;5110585;28;20071;-51
2022/05/11 07:12:18;;;;;;;7.13;2.70;;;;;;;26.82;26.15;100116.59;5110900;28;20534;-51
2022/05/11 07:14:53;;;;;;;7.95;2.47;;;;;;;26.74;25.58;100111.88;5110958;28;20027;-52
2022/05/11 07:17:38;;;;;;;7.10;2.30;;;;;;;26.45;25.83;100100.06;5110744;28;20035;-49
2022/05/11 07:20:06;;;;;;;4.38;2.60;;;;;;;27.12;25.17;100098.78;5111081;28;20030;-52
2022/05/11 07:22:32;;;;;;;4.40;2.30;;;;;;;26.95;25.56;100095.88;5110814;28;20024;-51
2022/05/11 07:24:58;;;;;;;5.35;2.20;;;;;;;27.04;25.61;100104.97;5110703;28;20028;-48
2022/05/11 07:27:23;;;;;;;7.22;2.33;;;;;;;27.58;24.94;100095.06;5110864;28;20472;-48
2022/05/11 07:29:51;;;;;;;5.63;2.85;;;;;;;27.55;24.92;100098.44;5110448;28;20454;-49
2022/05/11 07:32:17;;;;;;;4.95;2.22;;;;;;;27.36;24.92;100090.41;5110229;28;20031;-52
2022/05/11 07:34:42;;;;;;;4.88;2.10;;;;;;;28.58;23.44;100093.19;5110285;28;20043;-49
2022/05/11 07:37:08;;;;;;;5.75;2.10;;;;;;;28.99;23.00;100087.34;5110422;28;20100;-49
2022/05/11 07:39:33;;;;;;;3.42;2.00;;;;;;;28.70;22.79;100085.19;5110204;28;20032;-51
2022/05/11 07:41:59;;;;;;;6.47;2.50;;;;;;;29.24;22.51;100080.34;5110656;28;20020;-49
2022/05/11 07:44:25;;;;;;;14.60;2.60;;;;;;;29.14;22.84;100082.59;5110303;28;20466;-49
2022/05/11 07:46:51;;;;;;;6.22;2.20;;;;;;;29.51;22.76;100092.13;5110730;28;20082;-51
2022/05/11 07:49:18;;;;;;;6.35;2.10;;;;;;;30.32;21.87;100087.88;5110379;28;20024;-51
2022/05/11 07:51:45;;;;;;;5.25;2.10;;;;;;;30.21;22.02;100084.66;5110395;28;20058;-49
2022/05/11 07:54:12;;;;;;;5.97;2.15;;;;;;;30.78;21.40;100082.66;5110515;28;20134;-52
2022/05/11 08:02:06;;;;;;;4.40;2.05;;;;;;;31.50;19.30;100072.53;5110850;28;20488;-50
2022/05/11 08:04:31;;;;;;;8.23;2.20;;;;;;;31.62;19.39;100074.53;5110580;28;20035;-50
2022/05/11 08:06:58;;;;;;;5.63;2.20;;;;;;;31.34;19.89;100077.81;5109980;28;20058;-49
2022/05/11 08:09:25;;;;;;;3.83;1.92;;;;;;;29.89;21.00;100064.06;5113953;28;20447;-50
2022/05/11 08:11:52;;;;;;;6.13;2.10;;;;;;;30.94;20.34;100067.25;5114472;28;20027;-50
2022/05/11 08:14:17;;;;;;;4.60;2.28;;;;;;;31.46;19.66;100068.84;5114196;28;20088;-49
2022/05/11 08:16:43;;;;;;;2.85;2.20;;;;;;;32.06;19.81;100065.88;5114190;28;20020;-53
2022/05/11 08:19:10;;;;;;;3.22;2.10;;;;;;;32.67;19.45;100062.41;5114386;28;20023;-50
2022/05/11 08:21:36;;;;;;;6.05;2.20;;;;;;;32.38;18.86;100064.22;5114337;28;20032;-52
2022/05/11 08:24:01;;;;;;;11.10;2.58;;;;;;;32.69;19.32;100060.13;5114221;28;20141;-51
2022/05/11 08:26:27;;;;;;;7.65;2.25;;;;;;;32.63;18.17;100062.28;5113924;28;20023;-50
2022/05/11 08:28:53;;;;;;;3.78;2.10;;;;;;;32.08;18.04;100067.16;5114074;28;20032;-50
2022/05/11 08:34:02;;;;;;;5.47;2.10;;;;;;;32.25;18.34;100055.16;5113871;28;20070;-51
2022/05/11 08:36:29;;;;;;;6.93;2.20;;;;;;;32.44;17.58;100054.56;5095296;28;20059;-50
2022/05/11 08:38:56;;;;;;;5.82;2.20;;;;;;;32.64;18.32;100049.34;5113644;28;20371;-51
2022/05/11 08:41:38;;;;;;;4.95;2.22;;;;;;;33.05;17.02;100047.44;5113638;28;20515;-49
2022/05/11 08:44:13;;;;;;;4.20;2.08;;;;;;;32.84;17.07;100055.84;5113687;28;20024;-53
2022/05/11 08:46:53;;;;;;;3.42;1.90;;;;;;;32.79;16.67;100050.59;5113904;28;20119;-50
2022/05/11 08:49:47;;;;;;;7.28;2.03;;;;;;;31.56;17.40;100053.88;5113572;28;20023;-51
2022/05/11 08:52:40;;;;;;;5.22;2.08;;;;;;;32.06;16.58;100047.44;5113038;28;20047;-50
2022/05/11 08:55:35;;;;;;;7.43;2.30;;;;;;;32.92;16.54;100055.75;5113503;28;20027;-52
2022/05/11 08:58:30;;;;;;;5.82;2.08;;;;;;;33.43;14.98;100046.22;5098847;28;20043;-50
2022/05/11 09:00:57;;;;;;;6.63;2.10;;;;;;;33.43;15.47;100049.78;5104364;28;20100;-48
2022/05/11 09:03:39;;;;;;;6.72;2.30;;;;;;;33.83;15.67;100040.69;5113122;28;20480;-51
2022/05/11 09:06:32;;;;;;;3.92;2.20;;;;;;;34.07;15.30;100044.44;5112861;28;20322;-51
2022/05/11 09:08:59;;;;;;;7.05;2.30;;;;;;;34.22;14.53;100032.63;5113176;28;20031;-51
2022/05/11 09:11:35;;;;;;;5.75;2.03;;;;;;;34.00;14.79;100044.25;5113627;28;20114;-51
2022/05/11 09:14:02;;;;;;;5.55;2.30;;;;;;;33.35;16.10;100047.16;5112730;28;20015;-51
2022/05/11 09:16:49;;;;;;;3.28;2.28;;;;;;;33.14;16.01;100041.84;5112769;28;20023;-49
2022/05/11 09:19:22;;;;;;;6.28;2.40;;;;;;;33.58;15.68;100039.94;5093089;28;20103;-48
2022/05/11 09:22:14;;;;;;;4.40;2.50;;;;;;;33.21;15.45;100039.31;5112605;28;20208;-52
2022/05/11 09:24:51;;;;;;;4.55;2.63;;;;;;;33.76;15.20;100036.91;5112735;28;20035;-49
2022/05/11 09:27:35;;;;;;;5.55;2.47;;;;;;;33.43;15.23;100043.47;5112770;28;20088;-51
2022/05/11 09:30:25;;;;;;;4.35;2.63;;;;;;;34.07;15.43;100034.19;5112367;28;20020;-49
2022/05/11 09:33:03;;;;;;;11.38;2.80;;;;;;;34.13;15.89;100036.69;5112431;28;20023;-52
2022/05/11 09:35:37;;;;;;;5.07;2.67;;;;;;;33.63;16.64;100038.91;5112237;28;20382;-50
2022/05/11 09:38:15;;;;;;;5.05;2.50;;;;;;;34.05;16.09;100032.94;5112121;28;20024;-49
2022/05/11 09:40:55;;;;;;;4.22;2.60;;;;;;;32.06;16.93;100041.13;5112335;28;20096;-49
2022/05/11 09:43:38;;;;;;;3.83;2.50;;;;;;;32.23;16.76;100024.38;5112111;28;20028;-49
2022/05/11 09:46:26;;;;;;;5.85;2.60;;;;;;;32.91;16.96;100023.81;5112472;28;20024;-48
2022/05/11 09:48:55;;;;;;;8.70;2.80;;;;;;;33.66;16.82;100021.66;5096158;28;20046;-49
2022/05/11 09:51:38;;;;;;;;;;;;;;;33.58;16.50;100026.16;5112296;28;20036;-50
2022/05/11 09:54:38;;;;;;;7.60;2.80;;;;;;;32.48;17.32;100019.72;5112174;28;19908;-54
2022/05/11 09:57:09;;;;;;;5.35;2.90;;;;;;;32.42;17.83;100020.28;5112393;28;20039;-52
2022/05/11 09:59:37;;;;;;;7.85;2.72;;;;;;;32.85;17.03;100024.41;5112731;28;20035;-54
2022/05/11 10:02:18;;;;;;;4.90;2.95;;;;;;;32.07;17.52;100017.97;5111930;28;20035;-50
2022/05/11 10:04:48;;;;;;;7.28;3.00;;;;;;;32.44;17.64;100015.22;5111127;28;20035;-49
2022/05/11 10:07:19;;;;;;;7.05;2.97;;;;;;;32.99;16.65;100008.28;5111483;28;20058;-48
2022/05/11 10:09:50;;;;;;;6.10;2.65;;;;;;;33.94;16.38;100018.06;5111537;28;20027;-50
2022/05/11 10:12:19;;;;;;;6.47;2.67;;;;;;;34.48;15.81;100014.69;5111330;28;20254;-51
2022/05/11 10:23:15;;;;;;;5.18;3.00;;;;;;;32.46;17.46;100001.91;5111002;28;20467;-51
2022/05/11 10:25:49;;;;;;;7.68;2.92;;;;;;;32.41;18.12;99996.66;5111659;28;20023;-50
2022/05/11 10:28:33;;;;;;;6.28;3.00;;;;;;;32.62;18.01;100005.63;5111316;28;20367;-47
2022/05/11 10:31:14;;;;;;;8.73;3.08;;;;;;;31.33;19.63;100003.94;5110966;28;20031;-51
2022/05/11 10:33:48;;;;;;;7.97;2.72;;;;;;;31.74;19.10;99999.53;5111049;28;20037;-48
2022/05/11 10:36:32;;;;;;;6.07;2.90;;;;;;;31.34;19.12;100002.81;5111117;28;20019;-49
2022/05/11 10:38:57;;;;;;;11.20;3.50;;;;;;;32.06;18.68;99988.81;5110849;28;20024;-50
2022/05/11 10:41:44;;;;;;;5.90;3.00;;;;;;;31.55;19.12;99991.81;5110697;28;20038;-49
2022/05/11 10:44:57;;;;;;;6.03;3.05;;;;;;;31.10;19.25;99987.78;5110934;28;20475;-49
2022/05/11 10:47:57;;;;;;;4.63;2.92;;;;;;;31.61;19.38;99978.63;5088808;28;20106;-49
2022/05/11 10:50:57;;;;;;;4.18;2.95;;;;;;;31.45;19.00;99984.72;5110840;28;20084;-50
2022/05/11 10:53:50;;;;;;;7.07;3.30;;;;;;;31.63;19.38;99976.34;5111058;28;20023;-50
2022/05/11 10:56:34;;;;;;;6.72;2.90;;;;;;;31.69;19.05;99977.75;5110922;28;20049;-51
2022/05/11 10:59:15;;;;;;;3.47;2.70;;;;;;;31.36;19.20;99970.28;5110863;28;20027;-52
2022/05/11 11:02:00;;;;;;;7.25;3.10;;;;;;;31.51;19.01;99961.41;5110886;28;20443;-50
2022/05/11 11:04:44;;;;;;;4.88;2.88;;;;;;;31.62;19.05;99961.78;5110662;28;20118;-50
2022/05/11 11:07:25;;;;;;;4.78;2.97;;;;;;;32.09;18.26;99952.38;5110766;28;20059;-48
2022/05/11 11:09:59;;;;;;;3.92;2.92;;;;;;;33.05;17.92;99951.81;5110758;28;20062;-50
2022/05/11 11:12:39;;;;;;;3.45;2.83;;;;;;;33.81;17.19;99949.13;5110646;28;20064;-50
2022/05/11 11:15:10;;;;;;;5.65;2.80;;;;;;;29.22;21.25;99942.84;5110564;28;20033;-49
2022/05/11 11:17:36;;;;;;;6.47;2.97;;;;;;;29.58;22.02;99944.41;5110591;28;20031;-48
2022/05/11 11:20:06;;;;;;;4.03;2.92;;;;;;;31.38;20.01;99946.00;5110689;28;20019;-49
2022/05/11 11:23:13;;;;;;;6.05;3.30;;;;;;;32.08;18.60;99948.81;5110898;28;20058;-51
2022/05/11 11:25:44;;;;;;;3.85;2.80;;;;;;;32.50;18.91;99942.25;5110971;28;20047;-50
2022/05/11 11:28:12;;;;;;;3.50;2.85;;;;;;;32.95;18.14;99948.72;5111097;28;20023;-51
2022/05/11 11:30:39;;;;;;;8.90;3.10;;;;;;;32.71;18.68;99940.19;5111077;28;20475;-38
2022/05/11 11:33:11;;;;;;;5.80;3.10;;;;;;;32.49;18.52;99935.16;5111022;28;20023;-37
2022/05/11 11:35:40;;;;;;;9.23;3.05;;;;;;;33.05;18.10;99948.22;5110221;28;20495;-37
2022/05/11 11:38:06;;;;;;;9.20;3.00;;;;;;;32.81;18.53;99947.16;5110377;28;20049;-37
2022/05/11 11:40:33;;;;;;;9.30;3.40;;;;;;;33.19;18.07;99943.16;5110165;28;20044;-37
2022/05/11 11:43:38;;;;;;;7.03;2.90;;;;;;;33.48;18.25;99944.72;5111727;28;20023;-37
2022/05/11 11:45:49;;;;;;;6.30;3.10;;;;;;;32.71;18.42;99950.38;5112108;28;20023;-38
2022/05/11 11:48:22;;;;;;;5.68;2.85;;;;;;;32.63;18.77;99949.38;5114200;28;20023;-37
2022/05/11 11:50:53;;;;;;;3.95;3.00;;;;;;;32.15;18.89;99935.28;5111937;28;20028;-37
2022/05/11 11:53:51;;;;;;;8.02;3.10;;;;;;;32.23;18.60;99935.50;5095465;28;20441;-37
2022/05/11 11:56:25;;;;;;;4.13;3.13;;;;;;;31.72;19.35;99925.59;5093216;28;20084;-37
2022/05/11 11:59:10;;;;;;;5.55;3.10;;;;;;;32.09;19.03;99914.63;5112059;28;20058;-37
2022/05/11 12:01:41;;;;;;;6.32;3.17;;;;;;;31.18;19.93;99926.44;5112024;28;20106;-37
2022/05/11 12:04:20;;;;;;;5.78;2.90;;;;;;;31.74;19.53;99920.56;5114510;28;20092;-37
2022/05/11 12:15:31;;;;;;;4.38;2.85;;;;;;;33.22;18.86;99903.03;5114643;28;20130;-37
2022/05/11 12:17:58;;;;;;;4.20;3.00;;;;;;;32.66;18.77;99904.59;5093602;28;20040;-37
2022/05/11 12:20:24;;;;;;;5.75;3.28;;;;;;;32.17;19.26;99901.13;5114140;28;20043;-38